Aeroporto :
LOGIN :

Iscrizione | Disclaimer

   EN    FR    IT 

 










Sommario :    VFR   VFR Marginale   IFR   IFR Intensivo   IFR Molto Intensivo
Visibilità : 
Base nubi : 
>= 8 km
>= 3000ft
5 / 8 km
1000 / 3000 ft
1500m / 5 km
500 / 1000 ft
800 / 1500m
200 / 500 ft
< 800m
< 200 ft
Simboli :   Temporali  Nebbia  Neve Forte  Precipitazioni Forti  Vento > 20 kt
SIGMETs :   Varie  Temporali  Ghiacco  Turbolenza  Onda orograficha  Ceneri Vulcaniche






- Altitudine del aeroporto : 1276 ft
- Codice IATA : STR


EDDS - Stuttgart

ULTIMO METAR :
  • 180550Z AUTO 00000KT CAVOK 18/14 Q1015 NOSIG

METARs OBSOLETI :
  • 180520Z AUTO 00000KT CAVOK 16/13 Q1015 NOSIG
  • 180450Z AUTO 09001KT CAVOK 15/13 Q1015 NOSIG
  • 180420Z AUTO 10003KT 070V140 CAVOK 13/12 Q1015 NOSIG
  • 180350Z AUTO VRB01KT CAVOK 13/12 Q1015
  • 180320Z AUTO VRB01KT CAVOK 13/12 Q1015
  • 180250Z AUTO VRB01KT CAVOK 14/12 Q1016
  • 180220Z AUTO 00000KT CAVOK 13/12 Q1016
  • 180150Z AUTO VRB01KT CAVOK 12/11 Q1016
  • 180120Z AUTO VRB01KT CAVOK 13/12 Q1016

TAF TAF EDDS
Valido dal 18 a 06 ore il 19 a 06 ore UTC


180500Z 1806/1906 VRB03KT CAVOK
BECMG 1810/1813 20005KT
BECMG 1818/1821 VRB03KT
TEMPO 1822/1906 SHRA BKN045CB
PROB40
TEMPO 1900/1906 TSRA BKN030CB



MetMap, La meteo Aeronautica in un colpo d'occhio ! - Copyright ORBIFLY Dicembre 2007 - Disclaimer

ORBIFLY MET'MAP TEAM :

Programmazione e sviluppo : Alexandra Zaïnal
Concezione : Baudouin d'Aumeries
Supporto tecnico e logistico : Manuel Goepfert
Aiuto : Marc-Olivier Méhu
Aiuto per la traduzione : Arnaldo La Scala




FONTI E CREDITI :

   NOAA